Terminal Aerodrome Forecast
Issued by NWS

Home | Current Version | Previous Version | Text Only | Print | Product List | Glossary On
Versions: 1 2 3 4 5 6 7 8 9 10 11 12 13 14
000
FTUS46 KSGX 222329
TAFCRQ
TAF
KCRQ 222329Z 2300/2324 VRB04KT P6SM SCT006
     FM230100 VRB04KT 4SM BR BKN006
     FM230900 VRB04KT 3SM BR BKN004
     FM231500 VRB04KT 6SM BR BKN006
     FM231600 VRB04KT P6SM SCT009
     FM232000 25008KT P6SM FEW250=

USA.gov is the U.S. government's official web portal to all federal, state and local government web resources and services.